Ulianopolis, Brazil
Current Conditions -  °F | °C
As of 3:00 PM on Monday 20 Oct 2014 (Local Time) from SBIZ Reporting Station
Broken Clouds Broken Clouds  
Wind Chill: 34°   Ceiling: 2300
Heat Index: 37°   Visibility: 6mi
Dew Point: 21°   Wind: 10mph
Humidity: 46%   Direction: 330°NNW
Pressure: 29.8"   Gusts: NA
Location:  3.74°S, 47.49°W
Report Text: SBIZ 201800Z 33009KT 9999 BKN023 34/21 Q1009
Loading
Personal Weather Stations






























Interactive Weather Map
Tropical Storm Tracking
New forecast layout! Learn more

10-Day Weather Forecast

Advertisements
Track Severe Weather on mobile